Time;durP1;ratioP1;P1;durP2;ratioP2;P2;SDS_P1;SDS_P2;PMS_P1;PMS_P2;Temp;Humidity;BMP_temperature;BMP_pressure;BME280_temperature;BME280_humidity;BME280_pressure;Samples;Min_cycle;Max_cycle;Signal;HPM_P1;HPM_P2
2021/07/02 00:00:53;;;;;;;12.38;6.90;;;;;;;-139.48;100.00;61774.03;5054111;28;20051;-68
2021/07/02 00:03:36;;;;;;;10.80;6.85;;;;;;;-139.48;100.00;61774.03;5026519;28;20126;-68
2021/07/02 00:06:20;;;;;;;10.93;7.10;;;;;;;-139.48;100.00;61774.03;5026295;28;20118;-69
2021/07/02 00:09:04;;;;;;;11.75;7.40;;;;;;;-139.48;100.00;61774.03;5055224;28;20076;-68
2021/07/02 00:11:49;;;;;;;10.40;7.68;;;;;;;-139.48;100.00;61774.03;5040186;28;20074;-67
2021/07/02 00:14:32;;;;;;;10.50;6.85;;;;;;;-139.48;100.00;61774.03;5026069;28;20083;-68
2021/07/02 00:17:16;;;;;;;11.85;7.35;;;;;;;-139.48;100.00;61774.03;5039977;28;20131;-68
2021/07/02 00:20:00;;;;;;;11.00;6.85;;;;;;;-139.48;100.00;61774.03;5025979;28;20134;-68
2021/07/02 00:22:44;;;;;;;16.08;7.97;;;;;;;-139.48;100.00;61774.03;5025818;28;20055;-68
2021/07/02 00:25:28;;;;;;;16.92;7.85;;;;;;;-139.48;100.00;61774.03;5025885;28;20095;-67
2021/07/02 00:28:12;;;;;;;11.13;7.82;;;;;;;-139.48;100.00;61774.03;5039817;28;20132;-68
2021/07/02 00:30:56;;;;;;;11.93;7.90;;;;;;;-139.48;100.00;61774.03;5039588;28;20082;-68
2021/07/02 00:33:40;;;;;;;12.65;8.18;;;;;;;-139.48;100.00;61774.03;5039428;28;20055;-66
2021/07/02 00:36:23;;;;;;;12.93;7.88;;;;;;;-139.48;100.00;61774.03;5039635;28;20103;-68
2021/07/02 00:39:08;;;;;;;13.95;7.85;;;;;;;-139.48;100.00;61774.03;5025261;28;20414;-69
2021/07/02 00:41:52;;;;;;;15.50;8.43;;;;;;;-139.48;100.00;61774.03;5039539;28;20102;-68
2021/07/02 00:44:47;;;;;;;15.23;8.38;;;;;;;-139.48;100.00;61774.03;5039235;28;20098;-68
2021/07/02 00:47:31;;;;;;;14.23;8.05;;;;;;;-139.48;100.00;61774.03;5054510;28;20501;-68
2021/07/02 00:50:15;;;;;;;14.55;8.27;;;;;;;-139.48;100.00;61774.03;5039273;28;20102;-67
2021/07/02 00:52:59;;;;;;;13.90;7.97;;;;;;;-139.48;100.00;61774.03;5039366;28;20071;-68
2021/07/02 00:55:43;;;;;;;11.70;7.78;;;;;;;-139.48;100.00;61774.03;5025346;28;20588;-69
2021/07/02 00:58:33;;;;;;;16.88;8.65;;;;;;;-139.48;100.00;61774.03;5024995;28;20128;-68
2021/07/02 01:01:17;;;;;;;13.88;8.38;;;;;;;-139.48;100.00;61774.03;5025213;28;20051;-68
2021/07/02 01:04:01;;;;;;;13.13;8.43;;;;;;;-139.48;100.00;61774.03;5039163;28;20406;-68
2021/07/02 01:06:46;;;;;;;15.25;9.27;;;;;;;-139.48;100.00;61774.03;5039034;28;20051;-69
2021/07/02 01:09:30;;;;;;;14.48;8.48;;;;;;;-139.48;100.00;61774.03;5024845;28;20102;-68
2021/07/02 01:12:14;;;;;;;14.90;8.50;;;;;;;-139.48;100.00;61774.03;5038874;28;20457;-68
2021/07/02 01:14:58;;;;;;;14.68;9.25;;;;;;;-139.48;100.00;61774.03;5024747;28;20126;-68
2021/07/02 01:17:42;;;;;;;15.68;8.15;;;;;;;-139.48;100.00;61774.03;5053940;28;20142;-68
2021/07/02 01:20:26;;;;;;;13.48;8.52;;;;;;;-139.48;100.00;61774.03;5038567;28;20048;-68
2021/07/02 01:23:10;;;;;;;12.35;8.70;;;;;;;-139.48;100.00;61774.03;5054117;28;20448;-68
2021/07/02 01:25:54;;;;;;;14.55;8.50;;;;;;;-139.48;100.00;61774.03;5024925;28;20107;-68
2021/07/02 01:28:39;;;;;;;14.95;8.65;;;;;;;-139.48;100.00;61774.03;5024571;28;20047;-68
2021/07/02 01:31:22;;;;;;;16.20;9.73;;;;;;;-139.48;100.00;61774.03;5024443;28;20544;-68
2021/07/02 01:34:06;;;;;;;16.42;9.65;;;;;;;-139.48;100.00;61774.03;5038553;28;20044;-68
2021/07/02 01:36:51;;;;;;;18.27;9.57;;;;;;;-139.48;100.00;61774.03;5038254;28;20048;-67
2021/07/02 01:39:37;;;;;;;23.90;11.00;;;;;;;-139.48;100.00;61774.03;5024383;28;20056;-66
2021/07/02 01:42:21;;;;;;;19.73;10.48;;;;;;;-139.48;100.00;61774.03;5024585;28;20121;-68
2021/07/02 01:45:07;;;;;;;15.18;10.00;;;;;;;-139.48;100.00;61774.03;5024570;28;20148;-68
2021/07/02 01:47:51;;;;;;;14.45;9.27;;;;;;;-139.48;100.00;61774.03;5038424;28;20083;-67
2021/07/02 01:50:35;;;;;;;22.33;10.10;;;;;;;-139.48;100.00;61774.03;5038297;28;20051;-68
2021/07/02 01:53:19;;;;;;;16.05;10.00;;;;;;;-139.48;100.00;61774.03;5038402;28;20100;-68
2021/07/02 01:56:04;;;;;;;18.25;10.45;;;;;;;-139.48;100.00;61774.03;5024324;28;20048;-67
2021/07/02 01:58:50;;;;;;;17.58;10.23;;;;;;;-139.48;100.00;61774.03;5053116;28;20051;-68
2021/07/02 02:01:34;;;;;;;14.68;9.50;;;;;;;-139.48;100.00;61774.03;5053074;28;20136;-68
2021/07/02 02:04:19;;;;;;;18.00;9.07;;;;;;;-139.48;100.00;61774.03;5037960;28;20048;-68
2021/07/02 02:07:03;;;;;;;20.00;9.68;;;;;;;-139.48;100.00;61774.03;5053398;28;20059;-68
2021/07/02 02:09:47;;;;;;;16.30;9.20;;;;;;;-139.48;100.00;61774.03;5053205;28;20131;-68
2021/07/02 02:12:31;;;;;;;16.58;9.70;;;;;;;-139.48;100.00;61774.03;5037946;28;20067;-68
2021/07/02 02:15:15;;;;;;;16.98;9.07;;;;;;;-139.48;100.00;61774.03;5037892;28;20140;-68
2021/07/02 02:18:00;;;;;;;15.80;8.93;;;;;;;-139.48;100.00;61774.03;5024152;28;20150;-66
2021/07/02 02:20:45;;;;;;;15.10;9.30;;;;;;;-139.48;100.00;61774.03;5024081;28;20132;-68
2021/07/02 02:23:29;;;;;;;14.07;9.30;;;;;;;-139.48;100.00;61774.03;5055083;28;20095;-68
2021/07/02 02:26:13;;;;;;;15.60;9.70;;;;;;;-139.48;100.00;61774.03;5042074;28;20441;-68
2021/07/02 02:28:56;;;;;;;20.95;9.65;;;;;;;-139.48;100.00;61774.03;5041693;28;20090;-68
2021/07/02 02:31:40;;;;;;;18.10;9.98;;;;;;;-139.48;100.00;61774.03;5041711;28;20059;-68
2021/07/02 02:34:25;;;;;;;17.05;9.52;;;;;;;-139.48;100.00;61774.03;5041657;28;20055;-68
2021/07/02 02:37:09;;;;;;;15.30;9.40;;;;;;;-139.48;100.00;61774.03;5042324;28;20052;-68
2021/07/02 02:39:53;;;;;;;16.52;9.63;;;;;;;-139.48;100.00;61774.03;5041815;28;20044;-68
2021/07/02 02:42:38;;;;;;;16.70;9.57;;;;;;;-139.48;100.00;61774.03;5041791;28;20605;-68
2021/07/02 02:45:21;;;;;;;17.95;9.52;;;;;;;-139.48;100.00;61774.03;5041747;28;20055;-68
2021/07/02 02:48:05;;;;;;;15.82;10.05;;;;;;;-139.48;100.00;61774.03;5056482;28;20497;-68
2021/07/02 02:50:50;;;;;;;15.48;9.93;;;;;;;-139.48;100.00;61774.03;5041548;28;20103;-67
2021/07/02 02:53:33;;;;;;;16.15;9.32;;;;;;;-139.48;100.00;61774.03;5027387;28;20052;-68
2021/07/02 02:56:17;;;;;;;19.98;9.75;;;;;;;-139.48;100.00;61774.03;5027308;28;20047;-68
2021/07/02 02:59:01;;;;;;;14.13;9.38;;;;;;;-139.48;100.00;61774.03;5027426;28;20091;-68
2021/07/02 03:01:45;;;;;;;18.45;10.23;;;;;;;-139.48;100.00;61774.03;5042977;28;20456;-68
2021/07/02 03:04:30;;;;;;;15.20;9.85;;;;;;;-139.48;100.00;61774.03;5056513;28;20418;-68
2021/07/02 03:07:14;;;;;;;16.75;9.95;;;;;;;-139.48;100.00;61774.03;5041466;28;20048;-68
2021/07/02 03:09:58;;;;;;;16.58;9.35;;;;;;;-139.48;100.00;61774.03;5041054;28;20052;-68
2021/07/02 03:12:42;;;;;;;21.77;10.52;;;;;;;-139.48;100.00;61774.03;5056372;28;20592;-68
2021/07/02 03:15:27;;;;;;;16.13;9.00;;;;;;;-139.48;100.00;61774.03;5041216;28;20119;-68
2021/07/02 03:18:11;;;;;;;17.50;9.43;;;;;;;-139.48;100.00;61774.03;5040980;28;20048;-68
2021/07/02 03:20:54;;;;;;;22.40;9.30;;;;;;;-139.48;100.00;61774.03;5027184;28;20066;-68
2021/07/02 03:23:38;;;;;;;15.65;9.85;;;;;;;-139.48;100.00;61774.03;5056288;28;20513;-68
2021/07/02 03:26:22;;;;;;;16.92;9.30;;;;;;;-139.48;100.00;61774.03;5026994;28;20052;-68
2021/07/02 03:29:07;;;;;;;12.55;8.35;;;;;;;-139.48;100.00;61774.03;5040485;28;20503;-67
2021/07/02 03:31:50;;;;;;;18.88;10.15;;;;;;;-139.48;100.00;61774.03;5040895;28;20051;-68
2021/07/02 03:34:35;;;;;;;18.33;9.57;;;;;;;-139.48;100.00;61774.03;5027100;28;20092;-68
2021/07/02 03:37:19;;;;;;;16.75;8.85;;;;;;;-139.48;100.00;61774.03;5040516;28;20063;-68
2021/07/02 03:40:05;;;;;;;18.05;9.48;;;;;;;-139.48;100.00;61774.03;5040465;28;20048;-68
2021/07/02 03:42:49;;;;;;;15.00;9.50;;;;;;;-139.48;100.00;61774.03;5040459;28;20052;-68
2021/07/02 03:45:33;;;;;;;20.55;8.77;;;;;;;-139.48;100.00;61774.03;5040392;28;20075;-68
2021/07/02 03:48:17;;;;;;;16.00;8.98;;;;;;;-139.48;100.00;61774.03;5055482;28;20116;-68
2021/07/02 03:51:01;;;;;;;16.75;8.52;;;;;;;-139.48;100.00;61774.03;5040539;28;20461;-68
2021/07/02 03:53:44;;;;;;;16.08;8.82;;;;;;;-139.48;100.00;61774.03;5055639;28;20088;-68
2021/07/02 03:56:28;;;;;;;21.90;9.63;;;;;;;-139.48;100.00;61774.03;5040190;28;20083;-68
2021/07/02 03:59:12;;;;;;;17.50;9.68;;;;;;;-139.48;100.00;61774.03;5040246;28;20059;-68
2021/07/02 04:01:56;;;;;;;18.27;10.40;;;;;;;-139.48;100.00;61774.03;5040102;28;20517;-68
2021/07/02 04:04:41;;;;;;;18.27;10.13;;;;;;;-139.48;100.00;61774.03;5040309;28;20103;-68
2021/07/02 04:07:25;;;;;;;18.13;9.52;;;;;;;-139.48;100.00;61774.03;5040597;28;20460;-68
2021/07/02 04:10:09;;;;;;;14.77;9.93;;;;;;;-139.48;100.00;61774.03;5040207;28;20055;-68
2021/07/02 04:12:54;;;;;;;17.80;9.88;;;;;;;-139.48;100.00;61774.03;5040150;28;20056;-68
2021/07/02 04:15:38;;;;;;;21.05;10.02;;;;;;;-139.48;100.00;61774.03;5026288;28;20136;-68
2021/07/02 04:18:22;;;;;;;16.48;10.63;;;;;;;-139.48;100.00;61774.03;5025978;28;20048;-68
2021/07/02 04:21:06;;;;;;;19.02;10.10;;;;;;;-139.48;100.00;61774.03;5026003;28;20067;-68
2021/07/02 04:23:50;;;;;;;20.00;10.30;;;;;;;-139.48;100.00;61774.03;5040258;28;20523;-68
2021/07/02 04:26:34;;;;;;;16.42;9.32;;;;;;;-139.48;100.00;61774.03;5039897;28;20182;-68
2021/07/02 04:29:18;;;;;;;22.42;10.45;;;;;;;-139.48;100.00;61774.03;5025844;28;20426;-68
2021/07/02 04:32:02;;;;;;;17.52;9.38;;;;;;;-139.48;100.00;61774.03;5039738;28;20446;-68
2021/07/02 04:34:46;;;;;;;23.33;10.77;;;;;;;-139.48;100.00;61774.03;5054830;28;20134;-68
2021/07/02 04:37:30;;;;;;;26.25;10.05;;;;;;;-139.48;100.00;61774.03;5025569;28;20138;-68
2021/07/02 04:40:15;;;;;;;16.08;9.38;;;;;;;-139.48;100.00;61774.03;5054674;28;20132;-68
2021/07/02 04:42:59;;;;;;;14.88;9.02;;;;;;;-139.48;100.00;61774.03;5054369;28;20098;-69
2021/07/02 04:45:43;;;;;;;14.93;9.80;;;;;;;-139.48;100.00;61774.03;5025056;28;20178;-68
2021/07/02 04:48:27;;;;;;;17.17;10.25;;;;;;;-139.48;100.00;61774.03;5039405;28;20047;-68
2021/07/02 04:51:11;;;;;;;18.85;10.10;;;;;;;-139.48;100.00;61774.03;5025362;28;20127;-68
2021/07/02 04:53:55;;;;;;;20.92;9.82;;;;;;;-139.48;100.00;61774.03;5025135;28;20417;-69
2021/07/02 04:56:39;;;;;;;16.38;9.60;;;;;;;-139.48;100.00;61774.03;5039206;28;20093;-66
2021/07/02 04:59:29;;;;;;;14.60;10.15;;;;;;;-139.48;100.00;61774.03;5039088;28;20086;-68
2021/07/02 05:02:13;;;;;;;17.15;9.60;;;;;;;-139.48;100.00;61774.03;5039876;28;20047;-68
2021/07/02 05:04:57;;;;;;;21.27;9.40;;;;;;;-139.48;100.00;61774.03;5039092;28;20464;-68
2021/07/02 05:07:41;;;;;;;18.50;10.20;;;;;;;-139.48;100.00;61774.03;5039195;28;20123;-68
2021/07/02 05:10:24;;;;;;;12.60;8.75;;;;;;;-139.48;100.00;61774.03;5039030;28;20052;-68
2021/07/02 05:13:09;;;;;;;19.42;9.27;;;;;;;-139.48;100.00;61774.03;5024987;28;20052;-68
2021/07/02 05:15:53;;;;;;;14.30;10.00;;;;;;;-139.48;100.00;61774.03;5054226;28;20079;-68
2021/07/02 05:18:37;;;;;;;14.15;8.98;;;;;;;-139.48;100.00;61774.03;5038731;28;20547;-68
2021/07/02 05:21:21;;;;;;;12.77;9.02;;;;;;;-139.48;100.00;61774.03;5053931;28;20044;-68
2021/07/02 05:24:05;;;;;;;17.95;9.13;;;;;;;-139.48;100.00;61774.03;5038796;28;20051;-69
2021/07/02 05:26:49;;;;;;;16.80;8.15;;;;;;;-139.48;100.00;61774.03;5038751;28;20507;-68
2021/07/02 05:29:33;;;;;;;11.63;8.60;;;;;;;-139.48;100.00;61774.03;5024224;28;20043;-68
2021/07/02 05:32:17;;;;;;;12.02;8.95;;;;;;;-139.48;100.00;61774.03;5053437;28;20056;-68
2021/07/02 05:35:00;;;;;;;12.73;9.18;;;;;;;-139.48;100.00;61774.03;5053707;28;20135;-68
2021/07/02 05:37:44;;;;;;;12.55;8.77;;;;;;;-139.48;100.00;61774.03;5038487;28;20056;-68
2021/07/02 05:40:29;;;;;;;12.68;8.40;;;;;;;-139.48;100.00;61774.03;5038541;28;20048;-68
2021/07/02 05:43:12;;;;;;;13.82;9.13;;;;;;;-139.48;100.00;61774.03;5024498;28;20044;-68
2021/07/02 05:45:56;;;;;;;15.07;8.68;;;;;;;-139.48;100.00;61774.03;5024822;28;20079;-68
2021/07/02 05:48:40;;;;;;;17.10;8.95;;;;;;;-139.48;100.00;61774.03;5038228;28;20414;-68
2021/07/02 05:51:24;;;;;;;12.18;7.47;;;;;;;-139.48;100.00;61774.03;5053468;28;20464;-68
2021/07/02 05:54:09;;;;;;;11.30;8.25;;;;;;;-139.48;100.00;61774.03;5024429;28;20416;-68
2021/07/02 05:56:53;;;;;;;15.98;8.25;;;;;;;-139.48;100.00;61774.03;5052941;28;20473;-68
2021/07/02 05:59:37;;;;;;;14.70;9.15;;;;;;;-139.48;100.00;61774.03;5038052;28;20170;-68
2021/07/02 06:02:21;;;;;;;16.77;8.13;;;;;;;-139.48;100.00;61774.03;5037941;28;20464;-69
2021/07/02 06:05:05;;;;;;;17.35;8.35;;;;;;;-139.48;100.00;61774.03;5038183;28;20405;-68
2021/07/02 06:07:52;;;;;;;14.70;8.43;;;;;;;-139.48;100.00;61774.03;5038483;28;20115;-68
2021/07/02 06:10:35;;;;;;;11.60;7.97;;;;;;;-139.48;100.00;61774.03;5037975;28;20048;-68
2021/07/02 06:13:19;;;;;;;10.63;7.72;;;;;;;-139.48;100.00;61774.03;5037889;28;20109;-68
2021/07/02 06:16:04;;;;;;;12.27;8.23;;;;;;;-139.48;100.00;61774.03;5038115;28;20048;-68
2021/07/02 06:18:48;;;;;;;13.88;8.93;;;;;;;-139.48;100.00;61774.03;5037807;28;20052;-68
2021/07/02 06:21:32;;;;;;;15.38;8.15;;;;;;;-139.48;100.00;61774.03;5038031;28;20417;-69
2021/07/02 06:24:16;;;;;;;15.45;7.82;;;;;;;-139.48;100.00;61774.03;5038100;28;20051;-66
2021/07/02 06:27:00;;;;;;;11.63;8.20;;;;;;;-139.48;100.00;61774.03;5052869;28;20059;-69
2021/07/02 06:29:44;;;;;;;18.05;7.53;;;;;;;-139.48;100.00;61774.03;5037607;28;20094;-69
2021/07/02 06:32:27;;;;;;;11.82;7.78;;;;;;;-139.48;100.00;61774.03;5037957;28;20052;-69
2021/07/02 06:35:11;;;;;;;9.82;7.35;;;;;;;-139.48;100.00;61774.03;5037783;28;20513;-69
2021/07/02 06:37:55;;;;;;;10.77;7.18;;;;;;;-139.48;100.00;61774.03;5037613;28;20052;-68
2021/07/02 06:40:39;;;;;;;14.68;7.20;;;;;;;-139.48;100.00;61774.03;5037869;28;20521;-69
2021/07/02 06:43:23;;;;;;;11.15;6.88;;;;;;;-139.48;100.00;61774.03;5037577;28;20583;-69
2021/07/02 06:46:07;;;;;;;12.85;7.47;;;;;;;-139.48;100.00;61774.03;5037847;28;20051;-68
2021/07/02 06:48:51;;;;;;;10.23;7.38;;;;;;;-139.48;100.00;61774.03;5037627;28;20167;-69
2021/07/02 06:51:37;;;;;;;;;;;;;;;-139.48;100.00;61774.03;5038275;28;20101;-68
2021/07/02 06:54:20;;;;;;;10.27;6.88;;;;;;;-139.48;100.00;61774.03;5037925;28;20411;-68
2021/07/02 06:57:07;;;;;;;10.05;6.57;;;;;;;-139.48;100.00;61774.03;5037655;28;20091;-69
2021/07/02 06:59:51;;;;;;;11.02;6.65;;;;;;;-139.48;100.00;61774.03;5052569;28;20524;-68
2021/07/02 07:02:35;;;;;;;12.30;7.15;;;;;;;-139.48;100.00;61774.03;5037703;28;20048;-67
2021/07/02 07:05:20;;;;;;;8.52;6.45;;;;;;;-139.48;100.00;61774.03;5037662;28;20051;-68
2021/07/02 07:08:07;;;;;;;11.25;7.00;;;;;;;-139.48;100.00;61774.03;5037639;28;20052;-68
2021/07/02 07:10:51;;;;;;;8.30;6.57;;;;;;;-139.48;100.00;61774.03;5041010;28;20460;-68
2021/07/02 07:13:36;;;;;;;10.23;7.35;;;;;;;-139.48;100.00;61774.03;5041275;28;20106;-68
2021/07/02 07:16:20;;;;;;;11.55;7.28;;;;;;;-139.48;100.00;61774.03;5055996;28;20176;-69
2021/07/02 07:19:04;;;;;;;10.98;6.75;;;;;;;-139.48;100.00;61774.03;5040834;28;20513;-68
2021/07/02 07:21:48;;;;;;;13.02;7.38;;;;;;;-139.48;100.00;61774.03;5040869;28;20044;-68
2021/07/02 07:24:32;;;;;;;11.50;6.82;;;;;;;-139.48;100.00;61774.03;5056180;28;20051;-68
2021/07/02 07:27:16;;;;;;;13.32;7.32;;;;;;;-139.48;100.00;61774.03;5055988;28;20110;-69
2021/07/02 07:30:00;;;;;;;8.90;6.82;;;;;;;-139.48;100.00;61774.03;5040582;28;20067;-68
2021/07/02 07:32:48;;;;;;;14.23;7.80;;;;;;;-139.48;100.00;61774.03;5055918;28;20071;-68
2021/07/02 07:35:38;;;;;;;9.95;6.93;;;;;;;-139.48;100.00;61774.03;5041323;28;20464;-68
2021/07/02 07:38:22;;;;;;;8.68;6.25;;;;;;;-139.48;100.00;61774.03;5041440;28;20044;-69
2021/07/02 07:41:05;;;;;;;14.35;7.15;;;;;;;-139.48;100.00;61774.03;5026989;28;20564;-69
2021/07/02 07:43:50;;;;;;;7.95;6.72;;;;;;;-139.48;100.00;61774.03;5026761;28;20052;-68
2021/07/02 07:46:34;;;;;;;10.00;7.25;;;;;;;-139.48;100.00;61774.03;5040759;28;20091;-69
2021/07/02 07:49:18;;;;;;;12.52;6.80;;;;;;;-139.48;100.00;61774.03;5026315;28;20055;-68
2021/07/02 07:54:55;;;;;;;8.65;6.50;;;;;;;-139.48;100.00;61774.03;5055605;28;20047;-68
2021/07/02 07:57:39;;;;;;;10.57;7.50;;;;;;;-139.48;100.00;61774.03;5026376;28;20056;-68
2021/07/02 08:00:24;;;;;;;8.23;6.22;;;;;;;-139.48;100.00;61774.03;5040022;28;20048;-68
2021/07/02 08:03:08;;;;;;;8.18;6.57;;;;;;;-139.48;100.00;61774.03;5040366;28;20044;-68
2021/07/02 08:05:51;;;;;;;11.82;7.00;;;;;;;-139.48;100.00;61774.03;5026025;28;20090;-68
2021/07/02 08:08:35;;;;;;;10.75;6.65;;;;;;;-139.48;100.00;61774.03;5040101;28;20098;-68
2021/07/02 08:11:19;;;;;;;10.73;6.80;;;;;;;-139.48;100.00;61774.03;5055262;28;20560;-68
2021/07/02 08:14:04;;;;;;;8.63;6.57;;;;;;;-139.48;100.00;61774.03;5054925;28;20505;-69
2021/07/02 08:16:48;;;;;;;9.60;7.07;;;;;;;-139.48;100.00;61774.03;5040100;28;20413;-69
2021/07/02 08:19:32;;;;;;;9.75;6.18;;;;;;;-139.48;100.00;61774.03;5055089;28;20086;-69
2021/07/02 08:22:16;;;;;;;8.60;6.30;;;;;;;-139.48;100.00;61774.03;5039327;28;20052;-69
2021/07/02 08:25:00;;;;;;;;;;;;;;;-139.48;100.00;61774.03;5040040;28;20094;-69
2021/07/02 08:30:46;;;;;;;8.43;6.72;;;;;;;-139.48;100.00;61774.03;5042516;28;20410;-69
2021/07/02 08:33:30;;;;;;;8.68;6.45;;;;;;;-139.48;100.00;61774.03;5039618;28;20060;-69
2021/07/02 08:36:15;;;;;;;10.63;6.47;;;;;;;-139.48;100.00;61774.03;5054770;28;20047;-68
2021/07/02 08:38:59;;;;;;;9.07;6.70;;;;;;;-139.48;100.00;61774.03;5039213;28;20055;-69
2021/07/02 08:41:42;;;;;;;8.15;5.88;;;;;;;-139.48;100.00;61774.03;5054615;28;20043;-68
2021/07/02 08:44:26;;;;;;;6.97;5.45;;;;;;;-139.48;100.00;61774.03;5039269;28;20131;-69
2021/07/02 08:47:10;;;;;;;8.27;5.82;;;;;;;-139.48;100.00;61774.03;5039388;28;20059;-68
2021/07/02 08:49:54;;;;;;;6.82;5.22;;;;;;;-139.48;100.00;61774.03;5039002;28;20048;-68
2021/07/02 08:52:39;;;;;;;6.00;4.75;;;;;;;-139.48;100.00;61774.03;5039341;28;20051;-68
2021/07/02 08:55:23;;;;;;;9.95;6.43;;;;;;;-139.48;100.00;61774.03;5038960;28;20521;-69
2021/07/02 08:58:12;;;;;;;12.95;7.15;;;;;;;-139.48;100.00;61774.03;5039057;28;20071;-68
2021/07/02 09:00:56;;;;;;;10.32;6.30;;;;;;;-139.48;100.00;61774.03;5053987;22;20080;-67
2021/07/02 09:03:40;;;;;;;8.68;5.72;;;;;;;-139.48;100.00;61774.03;5034123;28;20112;-65
2021/07/02 09:06:24;;;;;;;8.68;6.07;;;;;;;-139.48;100.00;61774.03;5034054;28;20127;-67
2021/07/02 09:09:09;;;;;;;7.75;6.28;;;;;;;-139.48;100.00;61774.03;5033985;28;20044;-68
2021/07/02 09:12:07;;;;;;;9.70;6.53;;;;;;;-139.48;100.00;61774.03;5049909;28;20051;-68
2021/07/02 09:15:02;;;;;;;11.82;7.15;;;;;;;-139.48;100.00;61774.03;5025005;28;20067;-68
2021/07/02 09:17:49;;;;;;;10.35;6.63;;;;;;;-139.48;100.00;61774.03;5053872;28;20090;-67
2021/07/02 09:20:39;;;;;;;9.63;5.82;;;;;;;-139.48;100.00;61774.03;5053749;28;20055;-66
2021/07/02 09:23:37;;;;;;;7.93;5.97;;;;;;;-139.48;100.00;61774.03;5039488;28;20047;-68
2021/07/02 09:26:39;;;;;;;10.50;6.90;;;;;;;-139.48;100.00;61774.03;5053865;28;20052;-68
2021/07/02 09:29:23;;;;;;;6.75;5.88;;;;;;;-139.48;100.00;61774.03;5038839;28;20091;-67
2021/07/02 09:32:08;;;;;;;7.93;6.03;;;;;;;-139.48;100.00;61774.03;5038334;28;20052;-67
2021/07/02 09:34:52;;;;;;;;;;;;;;;-139.48;100.00;61774.03;5054106;28;20422;-67
2021/07/02 09:37:42;;;;;;;8.07;6.55;;;;;;;-139.48;100.00;61774.03;5038587;28;19951;-67
2021/07/02 09:40:34;;;;;;;8.38;6.10;;;;;;;-139.48;100.00;61774.03;5039159;28;20047;-67
2021/07/02 09:43:19;;;;;;;8.02;6.38;;;;;;;-139.48;100.00;61774.03;5038480;28;20052;-67
2021/07/02 09:46:05;;;;;;;8.82;6.03;;;;;;;-139.48;100.00;61774.03;5038375;28;20131;-67
2021/07/02 09:48:49;;;;;;;6.95;6.00;;;;;;;-139.48;100.00;61774.03;5024783;28;20051;-67
2021/07/02 09:51:33;;;;;;;10.20;5.82;;;;;;;-139.48;100.00;61774.03;5038263;28;20103;-67
2021/07/02 09:54:17;;;;;;;10.85;6.65;;;;;;;-139.48;100.00;61774.03;5024440;28;20059;-67
2021/07/02 09:57:19;;;;;;;8.55;6.10;;;;;;;-139.48;100.00;61774.03;5038228;28;20056;-65
2021/07/02 10:00:05;;;;;;;9.57;6.30;;;;;;;-139.48;100.00;61774.03;5038294;28;20592;-67
2021/07/02 10:02:56;;;;;;;8.63;6.95;;;;;;;-139.48;100.00;61774.03;5053163;28;20063;-67
2021/07/02 10:05:56;;;;;;;9.40;6.18;;;;;;;-139.48;100.00;61774.03;5038072;28;20095;-65
2021/07/02 10:08:40;;;;;;;8.68;5.70;;;;;;;-139.48;100.00;61774.03;5037962;28;20120;-67
2021/07/02 10:11:25;;;;;;;7.45;5.72;;;;;;;-139.48;100.00;61774.03;5038279;28;20067;-67
2021/07/02 10:14:09;;;;;;;9.70;6.78;;;;;;;-139.48;100.00;61774.03;5052952;28;20460;-67
2021/07/02 10:16:52;;;;;;;7.70;6.32;;;;;;;-139.48;100.00;61774.03;5053171;28;20052;-67
2021/07/02 10:19:41;;;;;;;10.00;6.25;;;;;;;-139.48;100.00;61774.03;5037450;28;20087;-68
2021/07/02 10:22:25;;;;;;;7.97;5.68;;;;;;;-139.48;100.00;61774.03;5038388;28;20052;-68
2021/07/02 10:25:16;;;;;;;6.40;5.68;;;;;;;-139.48;100.00;61774.03;5037851;28;20056;-66
2021/07/02 10:28:00;;;;;;;7.55;6.38;;;;;;;-139.48;100.00;61774.03;5037769;28;20528;-68
2021/07/02 10:30:44;;;;;;;9.82;5.90;;;;;;;-139.48;100.00;61774.03;5052738;28;20093;-68
2021/07/02 10:33:29;;;;;;;11.02;6.35;;;;;;;-139.48;100.00;61774.03;5024004;28;20378;-68
2021/07/02 10:36:14;;;;;;;6.75;6.03;;;;;;;-139.48;100.00;61774.03;5023546;28;20124;-68
2021/07/02 10:38:58;;;;;;;7.80;6.20;;;;;;;-139.48;100.00;61774.03;5023506;28;20052;-67
2021/07/02 10:41:42;;;;;;;;;;;;;;;-139.48;100.00;61774.03;5037943;28;20132;-66
2021/07/02 10:44:26;;;;;;;9.68;6.32;;;;;;;-139.48;100.00;61774.03;5039243;28;20365;-68
2021/07/02 10:47:10;;;;;;;9.38;6.78;;;;;;;-139.48;100.00;61774.03;5041651;28;20513;-68
2021/07/02 10:49:54;;;;;;;9.57;6.13;;;;;;;-139.48;100.00;61774.03;5027952;28;20597;-68
2021/07/02 10:52:41;;;;;;;;;;;;;;;-139.48;100.00;61774.03;5041825;28;20560;-68
2021/07/02 10:55:31;;;;;;;7.45;6.20;;;;;;;-139.48;100.00;61774.03;5042007;28;20281;-68
2021/07/02 10:58:15;;;;;;;8.85;6.80;;;;;;;-139.48;100.00;61774.03;5041401;28;20052;-68
2021/07/02 11:01:10;;;;;;;8.23;6.63;;;;;;;-139.48;100.00;61774.03;5040977;28;20052;-68
2021/07/02 11:04:32;;;;;;;9.10;6.03;;;;;;;-139.48;100.00;61774.03;5041022;28;20051;-68
2021/07/02 11:07:19;;;;;;;8.05;6.30;;;;;;;-139.48;100.00;61774.03;5056448;28;20132;-67
2021/07/02 11:10:07;;;;;;;7.55;6.20;;;;;;;-139.48;100.00;61774.03;5056595;28;20536;-67
2021/07/02 11:12:59;;;;;;;10.23;6.63;;;;;;;-139.48;100.00;61774.03;5056078;28;20067;-66
2021/07/02 11:16:02;;;;;;;7.05;6.35;;;;;;;-139.48;100.00;61774.03;5027154;28;20060;-67
2021/07/02 11:18:46;;;;;;;9.45;6.20;;;;;;;-139.48;100.00;61774.03;5056201;28;20044;-67
2021/07/02 11:21:30;;;;;;;9.40;6.43;;;;;;;-139.48;100.00;61774.03;5055973;28;20047;-67
2021/07/02 11:24:45;;;;;;;8.38;6.50;;;;;;;-139.48;100.00;61774.03;5056143;28;20103;-67
2021/07/02 11:27:34;;;;;;;9.52;6.40;;;;;;;-139.48;100.00;61774.03;5041213;28;20052;-67
2021/07/02 11:30:22;;;;;;;8.15;6.50;;;;;;;-139.48;100.00;61774.03;5056077;28;20095;-67
2021/07/02 11:33:09;;;;;;;9.48;6.82;;;;;;;-139.48;100.00;61774.03;5056013;28;20514;-67
2021/07/02 11:35:53;;;;;;;7.97;6.45;;;;;;;-139.48;100.00;61774.03;5056181;28;20055;-67
2021/07/02 11:38:44;;;;;;;;;;;;;;;-139.48;100.00;61774.03;5055902;28;20420;-66
2021/07/02 11:41:30;;;;;;;9.48;6.90;;;;;;;-139.48;100.00;61774.03;5040702;28;20015;-67
2021/07/02 11:44:14;;;;;;;8.70;6.53;;;;;;;-139.48;100.00;61774.03;5056007;28;20095;-67
2021/07/02 11:46:58;;;;;;;7.57;6.30;;;;;;;-139.48;100.00;61774.03;5055723;28;20056;-67
2021/07/02 11:49:46;;;;;;;7.68;6.20;;;;;;;-139.48;100.00;61774.03;5040015;28;20094;-66
2021/07/02 11:52:34;;;;;;;7.40;6.40;;;;;;;-139.48;100.00;61774.03;5040879;28;20106;-67
2021/07/02 11:55:24;;;;;;;9.05;6.20;;;;;;;-139.48;100.00;61774.03;5054482;28;20554;-67
2021/07/02 11:58:15;;;;;;;7.55;6.07;;;;;;;-139.48;100.00;61774.03;5026299;28;20111;-67
2021/07/02 12:01:02;;;;;;;10.98;6.55;;;;;;;-139.48;100.00;61774.03;5026144;28;20052;-66
2021/07/02 12:03:56;;;;;;;10.23;6.53;;;;;;;-139.48;100.00;61774.03;5040657;28;20051;-68
2021/07/02 12:06:45;;;;;;;8.32;6.45;;;;;;;-139.48;100.00;61774.03;5040294;28;20450;-67
2021/07/02 12:09:29;;;;;;;10.68;6.75;;;;;;;-139.48;100.00;61774.03;5055324;28;20135;-67
2021/07/02 12:12:20;;;;;;;;;;;;;;;-139.48;100.00;61774.03;5026564;28;20115;-67
2021/07/02 12:15:04;;;;;;;7.88;6.53;;;;;;;-139.48;100.00;61774.03;5039857;28;19920;-67
2021/07/02 12:18:02;;;;;;;8.48;6.32;;;;;;;-139.48;100.00;61774.03;5039713;28;20051;-68
2021/07/02 12:20:57;;;;;;;7.35;5.95;;;;;;;-139.48;100.00;61774.03;5025892;28;20076;-67
2021/07/02 12:23:43;;;;;;;7.35;6.22;;;;;;;-139.48;100.00;61774.03;5054941;28;20459;-67
2021/07/02 12:26:30;;;;;;;7.28;6.57;;;;;;;-139.48;100.00;61774.03;5039651;28;20090;-67
2021/07/02 12:29:14;;;;;;;7.78;6.05;;;;;;;-139.48;100.00;61774.03;5039823;28;20151;-67
2021/07/02 12:32:07;;;;;;;7.80;6.03;;;;;;;-139.48;100.00;61774.03;5039532;28;20465;-67